Time;durP1;ratioP1;P1;durP2;ratioP2;P2;SDS_P1;SDS_P2;PMS_P1;PMS_P2;Temp;Humidity;BMP_temperature;BMP_pressure;BME280_temperature;BME280_humidity;BME280_pressure;Samples;Min_cycle;Max_cycle;Signal;HPM_P1;HPM_P2
2023/10/23 04:32:28;;;;;;;0.10;0.10;;;12.30;82.20;;;;;;4966649;23;20043;-86
2023/10/23 04:34:54;;;;;;;0.00;0.00;;;12.30;82.80;;;;;;4972419;28;20090;-87
2023/10/23 04:37:19;;;;;;;0.10;0.10;;;12.20;82.60;;;;;;4978307;28;20031;-87
2023/10/23 04:39:45;;;;;;;0.00;0.00;;;12.20;82.50;;;;;;4974611;28;20038;-87
2023/10/23 04:42:10;;;;;;;0.10;0.10;;;12.20;82.60;;;;;;4978851;28;20023;-87
2023/10/23 04:44:36;;;;;;;0.10;0.10;;;12.20;82.10;;;;;;4978671;28;20019;-88
2023/10/23 04:47:02;;;;;;;0.00;0.00;;;12.30;82.70;;;;;;4978750;28;20066;-87
2023/10/23 04:49:28;;;;;;;0.00;0.00;;;12.30;82.70;;;;;;4970747;28;20479;-82
2023/10/23 04:51:54;;;;;;;0.03;0.03;;;12.30;82.40;;;;;;4960641;28;20031;-83
2023/10/23 04:54:19;;;;;;;0.00;0.00;;;12.30;82.30;;;;;;4960687;28;20035;-86
2023/10/23 04:56:46;;;;;;;0.10;0.10;;;12.30;82.50;;;;;;4972844;28;20486;-85
2023/10/23 04:59:11;;;;;;;0.10;0.10;;;12.30;82.50;;;;;;4975996;28;20770;-81
2023/10/23 05:01:37;;;;;;;0.10;0.10;;;12.30;82.20;;;;;;4976003;28;20061;-78
2023/10/23 05:04:03;;;;;;;0.00;0.00;;;12.30;82.20;;;;;;4967276;28;20031;-84
2023/10/23 05:06:29;;;;;;;0.10;0.10;;;12.30;82.00;;;;;;4966176;28;20030;-80
2023/10/23 05:08:55;;;;;;;0.10;0.10;;;12.30;82.20;;;;;;4960076;28;20031;-81
2023/10/23 05:11:21;;;;;;;0.10;0.10;;;12.30;82.20;;;;;;4960421;28;20031;-82
2023/10/23 05:13:47;;;;;;;0.10;0.10;;;12.30;82.00;;;;;;4959922;28;20451;-80
2023/10/23 05:16:13;;;;;;;0.10;0.10;;;12.30;82.20;;;;;;4974707;28;20031;-81
2023/10/23 05:18:39;;;;;;;0.00;0.00;;;12.30;82.20;;;;;;4959989;28;20037;-80
2023/10/23 05:21:14;;;;;;;0.10;0.10;;;12.30;82.20;;;;;;4975026;28;20020;-83
2023/10/23 05:23:40;;;;;;;0.10;0.10;;;12.30;82.10;;;;;;4963835;28;20027;-80
2023/10/23 05:26:08;;;;;;;0.00;0.00;;;12.30;82.20;;;;;;4978371;28;20015;-81
2023/10/23 05:28:33;;;;;;;0.00;0.00;;;12.30;82.30;;;;;;4975389;28;20082;-86
2023/10/23 05:30:59;;;;;;;0.00;0.00;;;12.30;82.30;;;;;;4964995;28;20117;-80
2023/10/23 05:33:25;;;;;;;0.05;0.05;;;12.30;82.30;;;;;;4978483;28;20031;-80
2023/10/23 05:36:00;;;;;;;0.10;0.10;;;12.30;82.30;;;;;;4977978;28;20033;-81
2023/10/23 05:38:26;;;;;;;0.10;0.10;;;12.30;82.30;;;;;;4976344;28;20113;-80
2023/10/23 05:40:56;;;;;;;0.00;0.00;;;12.30;82.20;;;;;;4973812;28;20066;-80
2023/10/23 05:43:22;;;;;;;0.10;0.10;;;12.30;82.10;;;;;;4977130;28;20038;-80
2023/10/23 05:45:50;;;;;;;0.00;0.00;;;12.30;82.20;;;;;;4972309;28;20019;-80
2023/10/23 05:48:15;;;;;;;0.00;0.00;;;12.30;82.20;;;;;;4958201;28;20035;-80
2023/10/23 05:50:41;;;;;;;0.10;0.10;;;12.30;82.10;;;;;;4963688;28;20063;-80
2023/10/23 05:53:07;;;;;;;0.00;0.00;;;12.30;82.20;;;;;;4958032;29;20065;-80
2023/10/23 05:55:35;;;;;;;0.03;0.03;;;12.40;82.30;;;;;;4958512;28;20035;-80
2023/10/23 05:58:02;;;;;;;0.03;0.03;;;12.30;82.20;;;;;;4952233;28;20042;-80
2023/10/23 06:00:28;;;;;;;0.10;0.10;;;12.40;82.10;;;;;;4969876;28;20057;-80
2023/10/23 06:02:54;;;;;;;0.00;0.00;;;12.30;82.20;;;;;;4995715;28;20444;-80
2023/10/23 06:05:20;;;;;;;0.00;0.00;;;12.30;82.10;;;;;;4972062;28;20035;-80
2023/10/23 06:07:45;;;;;;;0.00;0.00;;;12.30;82.30;;;;;;4974649;28;20038;-80
2023/10/23 06:10:11;;;;;;;0.10;0.10;;;12.30;82.00;;;;;;4961621;28;20027;-80
2023/10/23 06:12:37;;;;;;;0.00;0.00;;;12.30;82.00;;;;;;4966549;28;20034;-80
2023/10/23 06:15:03;;;;;;;0.10;0.10;;;12.30;82.00;;;;;;4972635;28;20030;-80
2023/10/23 06:17:28;;;;;;;0.10;0.10;;;12.30;81.90;;;;;;4960779;28;20035;-80
2023/10/23 06:19:54;;;;;;;0.00;0.00;;;12.30;82.10;;;;;;4958831;28;20387;-82
2023/10/23 06:22:20;;;;;;;0.00;0.00;;;12.30;82.10;;;;;;4963310;28;20117;-80
2023/10/23 06:24:45;;;;;;;0.10;0.10;;;12.30;81.80;;;;;;4957797;28;20050;-80
2023/10/23 06:27:11;;;;;;;0.10;0.10;;;12.30;81.90;;;;;;4963014;28;20395;-78
2023/10/23 06:29:37;;;;;;;0.10;0.10;;;12.30;82.00;;;;;;4966472;28;20042;-79
2023/10/23 06:32:03;;;;;;;0.08;0.08;;;12.20;81.60;;;;;;4958543;28;20117;-78
2023/10/23 06:34:28;;;;;;;0.00;0.00;;;12.30;81.80;;;;;;4971578;28;20122;-78
2023/10/23 06:36:54;;;;;;;0.00;0.00;;;12.20;82.00;;;;;;4978207;28;20062;-78
2023/10/23 06:39:21;;;;;;;0.00;0.00;;;12.20;81.80;;;;;;4977852;28;20479;-77
2023/10/23 06:41:50;;;;;;;0.08;0.08;;;12.20;81.70;;;;;;4959530;28;20123;-77
2023/10/23 06:44:15;;;;;;;0.10;0.10;;;12.30;81.80;;;;;;4976359;28;20046;-78
2023/10/23 06:46:41;;;;;;;0.10;0.10;;;12.20;81.90;;;;;;4972480;28;20038;-79
2023/10/23 06:49:07;;;;;;;0.05;0.05;;;12.20;81.60;;;;;;4958010;28;20047;-78
2023/10/23 06:51:32;;;;;;;0.13;0.10;;;12.20;81.60;;;;;;4958358;28;20531;-80
2023/10/23 06:53:58;;;;;;;0.10;0.10;;;12.20;81.80;;;;;;4957333;29;20034;-78
2023/10/23 06:56:24;;;;;;;0.10;0.10;;;12.30;81.50;;;;;;4961569;28;20106;-78
2023/10/23 06:58:51;;;;;;;0.10;0.10;;;12.30;81.60;;;;;;4956579;28;20043;-79
2023/10/23 07:01:17;;;;;;;0.03;0.03;;;12.30;81.40;;;;;;4962515;28;20031;-78
2023/10/23 07:03:43;;;;;;;0.10;0.10;;;12.30;81.50;;;;;;4970639;28;20023;-78
2023/10/23 07:06:08;;;;;;;0.03;0.03;;;12.30;81.50;;;;;;4969959;28;20023;-78
2023/10/23 07:08:34;;;;;;;0.00;0.00;;;12.30;81.30;;;;;;4969342;28;20102;-79
2023/10/23 07:11:00;;;;;;;0.10;0.10;;;12.40;81.50;;;;;;4966557;28;20023;-78
2023/10/23 07:13:26;;;;;;;0.00;0.00;;;12.40;81.30;;;;;;4960190;28;20087;-80
2023/10/23 07:15:52;;;;;;;0.00;0.00;;;12.40;81.10;;;;;;4966645;28;20030;-79
2023/10/23 07:18:18;;;;;;;0.10;0.10;;;12.40;80.90;;;;;;4967141;28;20074;-79
2023/10/23 07:20:59;;;;;;;0.08;0.08;;;12.50;81.10;;;;;;4967103;28;20019;-85
2023/10/23 07:23:25;;;;;;;0.10;0.10;;;12.50;81.30;;;;;;4965551;28;20029;-83
2023/10/23 07:26:10;;;;;;;0.10;0.10;;;12.50;81.50;;;;;;4967968;28;20558;-83
2023/10/23 07:28:38;;;;;;;0.10;0.10;;;12.50;81.30;;;;;;4967553;28;20461;-83
2023/10/23 07:31:05;;;;;;;0.10;0.10;;;12.50;81.20;;;;;;4965322;28;20046;-82
2023/10/23 07:33:31;;;;;;;0.00;0.00;;;12.60;80.90;;;;;;4969155;28;20027;-83
2023/10/23 07:36:04;;;;;;;0.10;0.10;;;12.60;80.60;;;;;;4972586;28;20106;-81
2023/10/23 07:38:31;;;;;;;0.10;0.10;;;12.60;80.60;;;;;;4968110;28;20058;-81
2023/10/23 07:40:57;;;;;;;0.00;0.00;;;12.60;80.50;;;;;;4967676;28;20030;-79
2023/10/23 07:43:29;;;;;;;0.05;0.05;;;12.60;80.40;;;;;;4973985;28;20023;-79
2023/10/23 07:45:55;;;;;;;0.20;0.10;;;12.60;80.50;;;;;;4974850;28;20109;-78
2023/10/23 07:48:23;;;;;;;0.10;0.10;;;12.50;79.80;;;;;;4975379;28;20026;-80
2023/10/23 07:50:48;;;;;;;0.00;0.00;;;12.50;80.50;;;;;;4961675;28;20019;-79
2023/10/23 07:53:14;;;;;;;0.10;0.10;;;12.60;80.60;;;;;;4974330;28;20085;-79
2023/10/23 07:55:40;;;;;;;0.10;0.10;;;12.60;80.90;;;;;;4971606;28;20078;-80
2023/10/23 07:58:05;;;;;;;0.00;0.00;;;12.70;80.40;;;;;;4972524;28;20034;-81
2023/10/23 08:00:31;;;;;;;0.10;0.10;;;12.70;80.70;;;;;;4974026;28;20031;-81
2023/10/23 08:02:57;;;;;;;0.10;0.10;;;12.70;80.80;;;;;;4977182;28;20019;-79
2023/10/23 08:05:23;;;;;;;0.10;0.10;;;12.80;80.50;;;;;;4977196;28;20026;-79
2023/10/23 08:07:49;;;;;;;0.10;0.10;;;12.80;80.10;;;;;;4967740;28;20086;-79
2023/10/23 08:10:15;;;;;;;0.00;0.00;;;12.80;80.40;;;;;;4976260;28;20034;-79
2023/10/23 08:12:40;;;;;;;0.10;0.10;;;12.80;80.70;;;;;;4978577;28;20031;-79
2023/10/23 08:15:07;;;;;;;0.00;0.00;;;12.90;80.50;;;;;;4979709;28;20077;-78
2023/10/23 08:17:33;;;;;;;0.10;0.10;;;13.00;80.30;;;;;;4976012;28;20051;-80
2023/10/23 08:19:59;;;;;;;0.10;0.10;;;13.00;79.90;;;;;;4975453;28;20117;-80
2023/10/23 08:22:25;;;;;;;0.03;0.03;;;13.00;79.70;;;;;;4974869;28;20050;-82
2023/10/23 08:24:50;;;;;;;0.10;0.10;;;13.00;79.50;;;;;;4968276;28;20499;-79
2023/10/23 08:27:16;;;;;;;0.00;0.00;;;13.10;80.10;;;;;;4979207;28;20406;-79
2023/10/23 08:29:42;;;;;;;0.00;0.00;;;13.20;79.40;;;;;;4974425;28;20418;-79
2023/10/23 08:32:07;;;;;;;0.10;0.10;;;13.20;78.90;;;;;;4979688;28;20930;-80
2023/10/23 08:34:33;;;;;;;0.10;0.10;;;13.20;79.60;;;;;;4975678;28;20086;-79
2023/10/23 08:36:59;;;;;;;0.10;0.10;;;13.20;79.00;;;;;;4978770;28;20059;-79
2023/10/23 08:39:25;;;;;;;0.00;0.00;;;13.20;78.80;;;;;;4976423;28;20022;-83
2023/10/23 08:41:51;;;;;;;0.10;0.10;;;13.20;79.00;;;;;;4974041;28;20082;-83
2023/10/23 08:44:17;;;;;;;0.10;0.10;;;13.20;79.10;;;;;;4979966;28;20023;-83
2023/10/23 08:46:43;;;;;;;0.08;0.08;;;13.20;79.10;;;;;;4979214;28;20094;-79
2023/10/23 08:49:09;;;;;;;0.10;0.10;;;13.30;79.10;;;;;;4975963;28;20065;-82
2023/10/23 08:51:35;;;;;;;0.05;0.05;;;13.30;78.90;;;;;;4977814;28;20046;-81
2023/10/23 08:54:03;;;;;;;0.25;0.20;;;13.40;78.50;;;;;;4978661;28;20093;-82
2023/10/23 08:56:30;;;;;;;0.10;0.10;;;13.40;79.30;;;;;;4976780;28;20054;-82
2023/10/23 08:58:59;;;;;;;0.10;0.10;;;13.50;78.90;;;;;;4978837;28;20054;-81
2023/10/23 09:01:27;;;;;;;0.05;0.05;;;13.50;78.30;;;;;;4976045;28;20026;-81
2023/10/23 09:03:53;;;;;;;0.00;0.00;;;13.40;78.20;;;;;;4965632;28;20035;-81
2023/10/23 09:06:19;;;;;;;0.20;0.10;;;13.50;77.90;;;;;;4967422;28;20502;-84
2023/10/23 09:08:45;;;;;;;0.00;0.00;;;13.50;78.30;;;;;;4971423;28;20130;-84
2023/10/23 09:11:11;;;;;;;0.10;0.10;;;13.50;77.80;;;;;;4964346;28;20055;-85
2023/10/23 09:13:38;;;;;;;0.00;0.00;;;13.60;78.30;;;;;;4960604;28;20491;-88
2023/10/23 09:16:05;;;;;;;0.00;0.00;;;13.70;77.70;;;;;;4958834;28;20087;-88
2023/10/23 09:18:32;;;;;;;0.10;0.10;;;13.70;77.60;;;;;;4960255;28;20031;-85
2023/10/23 09:20:58;;;;;;;0.10;0.10;;;13.70;77.60;;;;;;4970197;28;20011;-88
2023/10/23 09:23:28;;;;;;;0.10;0.10;;;13.70;77.40;;;;;;4961028;28;20033;-87
2023/10/23 09:25:58;;;;;;;0.00;0.00;;;13.80;77.50;;;;;;4975382;28;20019;-85
2023/10/23 09:28:28;;;;;;;0.00;0.00;;;13.70;76.60;;;;;;4972161;28;20027;-86
2023/10/23 09:30:54;;;;;;;0.00;0.00;;;13.70;76.90;;;;;;4976960;28;20034;-87
2023/10/23 09:33:20;;;;;;;0.10;0.10;;;13.70;77.00;;;;;;4974277;28;20090;-86
2023/10/23 09:35:46;;;;;;;0.10;0.10;;;13.70;77.40;;;;;;4978085;28;20030;-88
2023/10/23 09:38:12;;;;;;;0.00;0.00;;;13.80;77.50;;;;;;4974074;28;20419;-86
2023/10/23 09:40:38;;;;;;;0.10;0.10;;;13.80;76.60;;;;;;4962029;28;20027;-81
2023/10/23 09:43:06;;;;;;;0.10;0.10;;;13.90;77.50;;;;;;4960159;28;20034;-84
2023/10/23 09:45:33;;;;;;;0.10;0.10;;;13.80;76.30;;;;;;4972499;28;20483;-84
2023/10/23 09:48:01;;;;;;;0.10;0.10;;;13.80;76.30;;;;;;4974009;28;20027;-84
2023/10/23 09:50:27;;;;;;;0.00;0.00;;;13.80;76.40;;;;;;4975456;28;20018;-85
2023/10/23 09:52:56;;;;;;;0.00;0.00;;;13.80;76.10;;;;;;4972144;28;20407;-84
2023/10/23 09:55:26;;;;;;;0.03;0.03;;;13.80;76.20;;;;;;4974138;28;20049;-85
2023/10/23 09:57:54;;;;;;;0.10;0.10;;;13.80;76.30;;;;;;4974652;28;20086;-86
2023/10/23 10:00:20;;;;;;;0.00;0.00;;;13.90;76.20;;;;;;4974052;28;20422;-84
2023/10/23 10:02:58;;;;;;;0.08;0.08;;;14.00;75.30;;;;;;4975632;28;20023;-84
2023/10/23 10:05:32;;;;;;;0.10;0.10;;;13.90;75.60;;;;;;4973379;28;20058;-83
2023/10/23 10:08:07;;;;;;;0.03;0.03;;;14.00;76.00;;;;;;4975542;28;20464;-81
2023/10/23 10:10:36;;;;;;;0.10;0.10;;;14.00;75.80;;;;;;4978170;28;20019;-82
2023/10/23 10:13:03;;;;;;;0.05;0.05;;;14.10;75.90;;;;;;4972631;28;20109;-82
2023/10/23 10:15:31;;;;;;;0.10;0.10;;;14.20;76.10;;;;;;4974194;28;20019;-84
2023/10/23 10:17:57;;;;;;;0.00;0.00;;;14.10;75.20;;;;;;4971149;28;20022;-78
2023/10/23 10:20:24;;;;;;;0.00;0.00;;;14.00;74.60;;;;;;4974944;28;20018;-78
2023/10/23 10:23:01;;;;;;;0.00;0.00;;;14.00;75.70;;;;;;4968818;28;20031;-78
2023/10/23 10:25:27;;;;;;;0.00;0.00;;;14.10;76.40;;;;;;4972854;28;20019;-78
2023/10/23 10:28:04;;;;;;;0.00;0.00;;;13.90;74.90;;;;;;4972584;28;20055;-78
2023/10/23 10:30:43;;;;;;;0.10;0.10;;;13.80;75.70;;;;;;4969492;28;20098;-78
2023/10/23 10:33:24;;;;;;;0.08;0.08;;;13.90;76.80;;;;;;4968002;28;20169;-78
2023/10/23 10:36:03;;;;;;;0.00;0.00;;;13.80;76.00;;;;;;4971282;28;20028;-78
2023/10/23 10:38:30;;;;;;;0.10;0.10;;;13.80;76.30;;;;;;4958515;28;20031;-78
2023/10/23 10:41:00;;;;;;;0.00;0.00;;;13.80;76.50;;;;;;4967507;28;20054;-81
2023/10/23 10:43:33;;;;;;;0.10;0.10;;;13.80;77.00;;;;;;4970374;28;20035;-78
2023/10/23 10:46:12;;;;;;;0.00;0.00;;;13.80;77.10;;;;;;4968829;28;20483;-78
2023/10/23 10:48:46;;;;;;;0.05;0.05;;;13.80;76.60;;;;;;4966779;28;20062;-78
2023/10/23 10:51:24;;;;;;;0.08;0.08;;;13.80;76.50;;;;;;4973703;28;20023;-78
2023/10/23 10:54:03;;;;;;;0.10;0.10;;;13.80;77.00;;;;;;4978059;28;20035;-78
2023/10/23 10:56:29;;;;;;;0.05;0.05;;;13.80;77.30;;;;;;4971388;28;20435;-78
2023/10/23 10:58:58;;;;;;;0.00;0.00;;;13.80;77.50;;;;;;4975707;28;20035;-78
2023/10/23 11:01:24;;;;;;;0.10;0.10;;;13.80;77.20;;;;;;4958278;28;20027;-78
2023/10/23 11:03:50;;;;;;;0.00;0.00;;;13.80;77.80;;;;;;4970733;28;20042;-78
2023/10/23 11:06:16;;;;;;;0.00;0.00;;;13.80;78.00;;;;;;4971459;28;20071;-78
2023/10/23 11:08:42;;;;;;;0.00;0.00;;;13.70;77.30;;;;;;4977959;28;20143;-78
2023/10/23 11:11:07;;;;;;;0.00;0.00;;;13.80;78.20;;;;;;4993346;28;20034;-77
2023/10/23 11:13:33;;;;;;;0.00;0.00;;;13.80;77.90;;;;;;4976436;28;20035;-78
2023/10/23 11:15:59;;;;;;;0.00;0.00;;;13.80;77.80;;;;;;4977801;28;20109;-82
2023/10/23 11:18:27;;;;;;;0.10;0.10;;;13.80;77.90;;;;;;4977290;28;20023;-82
2023/10/23 11:21:00;;;;;;;0.00;0.00;;;13.80;78.10;;;;;;4979711;28;20023;-81
2023/10/23 11:23:30;;;;;;;0.10;0.10;;;13.80;78.20;;;;;;4979203;28;20459;-81
2023/10/23 11:25:56;;;;;;;0.00;0.00;;;13.80;78.20;;;;;;4968538;28;20377;-79
2023/10/23 11:28:23;;;;;;;0.10;0.10;;;13.70;77.80;;;;;;4959535;28;20499;-82
2023/10/23 11:30:53;;;;;;;0.00;0.00;;;13.70;78.40;;;;;;4977921;28;20043;-82
2023/10/23 11:33:19;;;;;;;0.10;0.10;;;13.70;78.70;;;;;;4977619;28;20494;-85
2023/10/23 11:35:44;;;;;;;0.10;0.10;;;13.70;78.90;;;;;;4975343;28;20031;-84
2023/10/23 11:38:14;;;;;;;0.25;0.17;;;13.70;78.40;;;;;;4966390;28;20109;-87
2023/10/23 11:40:42;;;;;;;0.00;0.00;;;13.70;79.20;;;;;;4972024;28;20093;-83
2023/10/23 11:43:13;;;;;;;0.10;0.10;;;13.70;78.90;;;;;;4961443;28;20035;-84
2023/10/23 11:45:40;;;;;;;0.10;0.10;;;13.80;78.90;;;;;;4972634;28;20340;-83
2023/10/23 11:48:11;;;;;;;0.00;0.00;;;13.80;78.90;;;;;;4973709;28;20043;-86
2023/10/23 11:50:38;;;;;;;0.05;0.05;;;13.80;79.10;;;;;;4978747;28;20027;-85
2023/10/23 11:53:04;;;;;;;0.10;0.10;;;13.80;78.70;;;;;;4974822;28;20398;-86
2023/10/23 11:55:31;;;;;;;0.10;0.10;;;13.80;79.00;;;;;;4982225;28;20023;-86
2023/10/23 11:57:56;;;;;;;0.10;0.10;;;13.80;79.00;;;;;;4975838;28;20518;-85
2023/10/23 12:00:23;;;;;;;0.00;0.00;;;13.80;79.00;;;;;;4968121;28;20053;-85
2023/10/23 12:02:49;;;;;;;0.00;0.00;;;13.80;78.90;;;;;;4978681;28;20019;-88
2023/10/23 12:05:21;;;;;;;0.10;0.10;;;13.80;79.10;;;;;;4976670;28;20023;-85
2023/10/23 12:07:50;;;;;;;0.10;0.10;;;13.90;79.10;;;;;;4980468;28;20045;-81
2023/10/23 12:10:16;;;;;;;0.10;0.10;;;14.00;78.90;;;;;;4980216;28;20031;-82
2023/10/23 12:12:43;;;;;;;0.10;0.10;;;14.10;78.60;;;;;;4981539;28;20030;-82
2023/10/23 12:15:10;;;;;;;0.10;0.10;;;14.20;78.60;;;;;;4978978;28;20093;-81
2023/10/23 12:17:37;;;;;;;0.10;0.10;;;14.30;78.70;;;;;;4967828;28;20085;-81
2023/10/23 12:20:10;;;;;;;0.10;0.10;;;14.40;78.10;;;;;;4971966;28;20517;-81
2023/10/23 12:22:46;;;;;;;0.10;0.10;;;14.50;77.70;;;;;;4974291;28;20034;-82
2023/10/23 12:25:16;;;;;;;0.03;0.03;;;14.50;77.70;;;;;;4970829;28;20031;-81
2023/10/23 12:27:41;;;;;;;0.00;0.00;;;14.60;77.50;;;;;;4968315;28;20047;-81
2023/10/23 12:30:09;;;;;;;0.10;0.10;;;14.80;77.60;;;;;;4974242;28;20086;-81
2023/10/23 12:32:35;;;;;;;0.10;0.10;;;14.90;76.40;;;;;;4972505;28;20027;-80
2023/10/23 12:35:04;;;;;;;0.10;0.10;;;15.10;76.60;;;;;;4977523;28;20058;-80
2023/10/23 12:37:31;;;;;;;0.10;0.10;;;15.40;75.70;;;;;;4977231;28;20447;-80
2023/10/23 12:40:00;;;;;;;0.10;0.10;;;15.70;74.80;;;;;;4977162;28;20027;-81
2023/10/23 12:42:27;;;;;;;0.10;0.10;;;15.80;73.10;;;;;;4977502;28;20106;-81
2023/10/23 12:44:54;;;;;;;0.00;0.00;;;16.10;73.40;;;;;;4979734;28;20379;-81
2023/10/23 12:47:20;;;;;;;0.10;0.10;;;16.30;73.40;;;;;;4979167;28;20414;-81
2023/10/23 12:49:46;;;;;;;0.10;0.10;;;16.50;73.10;;;;;;4972796;28;20054;-81
2023/10/23 12:52:13;;;;;;;0.10;0.10;;;16.60;72.50;;;;;;4978466;28;20042;-82
2023/10/23 12:54:39;;;;;;;0.00;0.00;;;16.70;72.40;;;;;;4979113;28;20018;-86
2023/10/23 12:57:05;;;;;;;0.00;0.00;;;16.60;72.30;;;;;;4978748;28;20475;-81
2023/10/23 12:59:33;;;;;;;0.00;0.00;;;16.50;72.20;;;;;;4966472;28;20019;-80
2023/10/23 13:02:00;;;;;;;0.00;0.00;;;16.30;72.50;;;;;;4960115;28;20035;-79
2023/10/23 13:04:26;;;;;;;0.08;0.08;;;16.20;73.60;;;;;;4974922;28;20027;-79
2023/10/23 13:06:52;;;;;;;0.13;0.10;;;16.50;73.40;;;;;;4972977;28;20030;-78
2023/10/23 13:09:18;;;;;;;0.10;0.10;;;16.80;72.50;;;;;;4978998;28;20037;-78
2023/10/23 13:11:45;;;;;;;0.00;0.00;;;16.80;72.30;;;;;;4969385;28;20244;-78
2023/10/23 13:14:11;;;;;;;0.00;0.00;;;16.70;71.70;;;;;;4977492;28;20077;-79
2023/10/23 13:16:37;;;;;;;0.00;0.00;;;16.70;72.10;;;;;;4974637;28;20482;-79
2023/10/23 13:19:03;;;;;;;0.00;0.00;;;16.70;72.50;;;;;;4978532;28;20097;-80
2023/10/23 13:21:28;;;;;;;0.00;0.00;;;16.50;72.20;;;;;;4976855;28;20019;-79
2023/10/23 13:23:55;;;;;;;0.00;0.00;;;16.50;72.50;;;;;;4976100;28;20105;-79
2023/10/23 13:26:23;;;;;;;0.00;0.00;;;16.30;73.20;;;;;;4975710;28;20030;-79
2023/10/23 13:28:49;;;;;;;0.05;0.05;;;16.30;73.90;;;;;;4973451;28;20019;-79
2023/10/23 13:31:15;;;;;;;0.00;0.00;;;16.20;73.30;;;;;;4977300;28;20058;-78
2023/10/23 13:33:41;;;;;;;0.10;0.10;;;16.10;73.90;;;;;;4978022;28;20027;-77
2023/10/23 13:36:08;;;;;;;0.00;0.00;;;16.20;74.30;;;;;;4977803;28;20113;-78
2023/10/23 13:38:34;;;;;;;0.10;0.00;;;16.20;74.40;;;;;;4978573;28;20019;-77
2023/10/23 13:41:07;;;;;;;0.00;0.00;;;16.20;74.30;;;;;;4973530;28;20784;-80
2023/10/23 13:43:33;;;;;;;;;;;16.20;74.50;;;;;;4979035;28;20097;-79
2023/10/23 13:45:59;;;;;;;0.00;0.00;;;16.20;74.80;;;;;;4961291;28;19910;-77
2023/10/23 13:48:24;;;;;;;0.03;0.03;;;16.10;75.00;;;;;;4958948;28;20065;-77
2023/10/23 13:50:51;;;;;;;0.00;0.00;;;16.00;75.20;;;;;;4958419;28;20023;-77
2023/10/23 13:53:23;;;;;;;0.00;0.00;;;16.10;75.10;;;;;;4963491;28;20033;-77
2023/10/23 13:55:50;;;;;;;0.00;0.00;;;16.00;75.30;;;;;;4974859;28;20038;-77
2023/10/23 13:58:16;;;;;;;0.10;0.10;;;15.90;75.30;;;;;;4961522;28;20038;-78
2023/10/23 14:00:42;;;;;;;0.00;0.00;;;16.00;75.40;;;;;;4959233;28;20027;-77
2023/10/23 14:03:08;;;;;;;0.00;0.00;;;16.10;75.20;;;;;;4960952;28;20031;-77
2023/10/23 14:05:34;;;;;;;0.00;0.00;;;16.10;74.20;;;;;;4959402;28;20027;-77
2023/10/23 14:08:03;;;;;;;0.00;0.00;;;16.00;74.80;;;;;;4962500;28;20399;-77
2023/10/23 14:10:30;;;;;;;0.00;0.00;;;15.90;75.00;;;;;;4969302;28;20614;-77
2023/10/23 14:12:56;;;;;;;0.10;0.10;;;15.80;75.30;;;;;;4968982;28;20034;-77
2023/10/23 14:15:22;;;;;;;0.10;0.10;;;15.70;75.80;;;;;;4965855;28;20035;-77
2023/10/23 14:17:47;;;;;;;0.10;0.10;;;15.70;76.10;;;;;;4957733;28;20039;-77
2023/10/23 14:20:13;;;;;;;0.10;0.10;;;15.80;76.10;;;;;;4958159;28;20392;-77
2023/10/23 14:22:40;;;;;;;0.10;0.10;;;16.00;75.80;;;;;;4957418;28;20027;-77
2023/10/23 14:25:10;;;;;;;0.00;0.00;;;16.10;75.80;;;;;;4962608;28;20045;-77
2023/10/23 14:27:36;;;;;;;0.10;0.10;;;16.20;75.20;;;;;;4976317;28;20022;-77
2023/10/23 14:30:05;;;;;;;0.00;0.00;;;16.20;74.50;;;;;;4969249;28;20137;-77
2023/10/23 14:32:31;;;;;;;0.03;0.03;;;16.20;74.80;;;;;;4976825;28;20041;-78
2023/10/23 14:34:58;;;;;;;0.00;0.00;;;16.20;75.30;;;;;;4975717;28;20023;-78
2023/10/23 14:37:24;;;;;;;0.00;0.00;;;16.20;75.70;;;;;;4975474;28;20043;-79
2023/10/23 14:39:50;;;;;;;0.10;0.10;;;16.10;75.80;;;;;;4977772;28;20035;-78
2023/10/23 14:42:16;;;;;;;0.10;0.10;;;16.00;75.50;;;;;;4974531;28;20114;-79
2023/10/23 14:44:42;;;;;;;0.10;0.10;;;16.20;76.30;;;;;;4978176;28;20014;-78
2023/10/23 14:47:09;;;;;;;0.00;0.00;;;16.20;76.40;;;;;;4977634;28;20494;-78
2023/10/23 14:49:34;;;;;;;0.10;0.10;;;16.20;76.40;;;;;;4972101;28;20495;-77
2023/10/23 14:52:00;;;;;;;0.10;0.10;;;16.20;76.80;;;;;;4973691;28;20081;-79
2023/10/23 14:54:26;;;;;;;0.00;0.00;;;16.10;76.20;;;;;;4969853;28;20035;-77
2023/10/23 14:56:52;;;;;;;0.10;0.10;;;15.90;76.40;;;;;;4955852;28;20038;-79
2023/10/23 14:59:18;;;;;;;0.05;0.05;;;15.80;77.20;;;;;;4968421;28;20033;-79
2023/10/23 15:01:43;;;;;;;0.08;0.08;;;15.60;77.60;;;;;;4966796;28;20030;-86
2023/10/23 15:04:09;;;;;;;0.00;0.00;;;15.50;78.00;;;;;;4977670;28;20497;-84
2023/10/23 15:06:35;;;;;;;0.00;0.00;;;15.30;78.20;;;;;;4966972;28;20026;-85
2023/10/23 15:09:00;;;;;;;0.03;0.03;;;15.30;78.60;;;;;;4960622;28;20027;-85
2023/10/23 15:11:26;;;;;;;0.00;0.00;;;15.20;78.90;;;;;;4973597;28;20026;-78
2023/10/23 15:13:55;;;;;;;0.00;0.00;;;15.20;79.10;;;;;;4958391;28;20062;-79
2023/10/23 15:16:21;;;;;;;0.00;0.00;;;15.20;79.40;;;;;;4958383;28;20098;-80
2023/10/23 15:18:47;;;;;;;0.00;0.00;;;15.20;79.40;;;;;;4956055;28;20406;-80
2023/10/23 15:21:14;;;;;;;0.10;0.10;;;15.30;79.60;;;;;;4957343;28;20118;-80
2023/10/23 15:23:40;;;;;;;0.05;0.05;;;15.30;79.60;;;;;;4957508;28;20029;-80
2023/10/23 15:26:06;;;;;;;0.05;0.05;;;15.30;79.60;;;;;;4957312;29;20559;-80
2023/10/23 15:28:35;;;;;;;0.10;0.10;;;15.40;79.70;;;;;;4973320;28;20030;-81
2023/10/23 15:31:02;;;;;;;0.00;0.00;;;15.40;79.60;;;;;;4976493;28;20047;-79
2023/10/23 15:33:28;;;;;;;0.10;0.10;;;15.40;79.70;;;;;;4968029;28;20055;-79
2023/10/23 15:35:58;;;;;;;0.03;0.03;;;15.50;79.80;;;;;;4977354;28;20027;-79
2023/10/23 15:38:26;;;;;;;0.10;0.10;;;15.40;79.80;;;;;;4958573;28;20122;-78
2023/10/23 15:40:53;;;;;;;0.00;0.00;;;15.40;79.90;;;;;;4967300;28;20025;-79
2023/10/23 15:43:20;;;;;;;0.10;0.10;;;15.30;80.00;;;;;;4963405;28;20549;-83
2023/10/23 15:45:47;;;;;;;0.00;0.00;;;15.30;80.20;;;;;;4973327;28;20038;-82
2023/10/23 15:48:15;;;;;;;0.00;0.00;;;15.30;80.50;;;;;;4959302;28;20035;-81
2023/10/23 15:50:41;;;;;;;0.00;0.00;;;15.30;80.60;;;;;;4986324;28;20549;-81
2023/10/23 15:53:07;;;;;;;0.10;0.10;;;15.30;80.70;;;;;;5010086;28;20034;-80
2023/10/23 15:55:33;;;;;;;0.00;0.00;;;15.20;80.90;;;;;;4977457;28;20034;-80
2023/10/23 15:57:58;;;;;;;0.08;0.08;;;15.20;81.10;;;;;;4963672;28;20031;-80
2023/10/23 16:00:25;;;;;;;0.05;0.05;;;15.20;81.10;;;;;;4957818;28;20063;-81
2023/10/23 16:02:51;;;;;;;0.00;0.00;;;15.30;81.20;;;;;;4963856;28;20042;-80
2023/10/23 16:05:16;;;;;;;0.08;0.08;;;15.20;81.20;;;;;;4976151;28;20044;-80
2023/10/23 16:07:42;;;;;;;0.00;0.00;;;15.20;81.50;;;;;;4971148;28;20046;-80
2023/10/23 16:10:09;;;;;;;0.05;0.05;;;15.20;81.60;;;;;;4986261;28;20027;-79
2023/10/23 16:12:34;;;;;;;0.10;0.10;;;15.20;81.60;;;;;;4975117;28;20039;-79
2023/10/23 16:15:00;;;;;;;0.10;0.05;;;15.10;81.80;;;;;;4976182;28;20716;-79
2023/10/23 16:17:26;;;;;;;0.10;0.10;;;15.10;81.90;;;;;;4959155;28;20031;-79
2023/10/23 16:19:51;;;;;;;0.00;0.00;;;15.00;82.20;;;;;;4957005;29;20079;-79
2023/10/23 16:22:17;;;;;;;0.00;0.00;;;15.00;82.50;;;;;;4960063;28;20399;-79
2023/10/23 16:24:43;;;;;;;0.00;0.00;;;15.00;82.70;;;;;;4975927;28;20170;-79
2023/10/23 16:27:08;;;;;;;0.00;0.00;;;14.90;82.90;;;;;;4961532;28;20026;-80
2023/10/23 16:29:34;;;;;;;0.03;0.03;;;15.00;83.20;;;;;;4968042;28;20098;-79
2023/10/23 16:31:59;;;;;;;0.00;0.00;;;14.90;83.30;;;;;;4961239;29;20043;-79
2023/10/23 16:34:25;;;;;;;0.00;0.00;;;14.90;83.30;;;;;;4977039;28;20023;-87
2023/10/23 16:36:51;;;;;;;0.00;0.00;;;14.90;83.30;;;;;;4973256;28;20463;-88
2023/10/23 16:39:18;;;;;;;0.10;0.10;;;14.90;83.40;;;;;;4974124;28;20495;-88
2023/10/23 16:41:44;;;;;;;0.00;0.00;;;14.90;83.40;;;;;;4977969;28;20031;-87
2023/10/23 16:44:10;;;;;;;0.00;0.00;;;14.80;83.40;;;;;;4976550;28;20085;-86
2023/10/23 16:46:35;;;;;;;0.00;0.00;;;14.80;83.70;;;;;;4980084;28;20023;-87
2023/10/23 16:49:01;;;;;;;0.00;0.00;;;14.70;83.80;;;;;;4974873;28;20023;-86
2023/10/23 16:51:27;;;;;;;0.00;0.00;;;14.70;83.80;;;;;;4973036;28;20034;-88
2023/10/23 16:53:52;;;;;;;0.00;0.00;;;14.70;84.00;;;;;;4995045;28;20027;-86
2023/10/23 16:56:18;;;;;;;0.00;0.00;;;14.70;84.00;;;;;;4975747;28;20419;-86
2023/10/23 16:58:43;;;;;;;0.08;0.08;;;14.70;84.00;;;;;;4978216;28;20023;-86
2023/10/23 17:01:09;;;;;;;0.00;0.00;;;14.60;84.10;;;;;;4977671;28;20035;-84
2023/10/23 17:03:37;;;;;;;0.00;0.00;;;14.50;84.30;;;;;;4979389;28;20077;-87
2023/10/23 17:06:07;;;;;;;0.00;0.00;;;14.50;84.50;;;;;;4978892;28;20034;-88
2023/10/23 17:08:32;;;;;;;0.00;0.00;;;14.60;84.50;;;;;;4977406;28;20521;-85
2023/10/23 17:11:06;;;;;;;0.05;0.05;;;14.60;84.60;;;;;;4978883;28;20031;-88
2023/10/23 17:13:32;;;;;;;0.00;0.00;;;14.70;84.50;;;;;;4972974;28;20038;-82
2023/10/23 17:15:58;;;;;;;0.10;0.10;;;14.60;84.40;;;;;;4960836;29;20027;-81
2023/10/23 17:18:24;;;;;;;0.00;0.00;;;14.60;84.30;;;;;;4975263;28;20037;-86